Main page
METAR-TAF:

METAR-TAF

Airports :

Brighton City Airport (Shoreham Airport)

Brighton, England

latitude: 50-50N, longitude: 000-17W, elevation: 2 m

Current weather observation

The report was made 6 hours and 15 minutes ago, at 18:50 UTC
Wind 9 kt from the Southwest
Temperature 10°C
Humidity 82%
Pressure 997 hPa
Visibility: 9000 m
Scattered clouds at a height of 2500 ft

METAR: EGKA 251850Z 22009KT 9000 SCT025 10/07 Q0997

Time: 01:05 (01:05 UTC)

Forecast

The report was made 11 hours and 6 minutes ago, at 13:59 UTC
Forecast valid from 25 at 15 UTC to 25 at 18 UTC
Wind 12 kt from the Southwest
Visibility 10 km or more
Scattered clouds at a height of 2000 ft
Temporary
from 25 at 15 UTC to 25 at 18 UTC
Wind 18 kt from the Southwest with gusts up to 30 kt
Visibility: 7000 m
rain showers
Probability 30% :
Temporary
from 25 at 15 UTC to 25 at 18 UTC
Visibility: 3000 m
thunderstorm, heavy rain

TAF: EGKA 251359Z 2515/2518 22012KT 9999 SCT020 TEMPO 2515/2518 23018G30KT 7000 SHRA PROB30 TEMPO 2515/2518 3000 +TSRA

Weather observations and forecasts of more than 4000 airports (METAR and TAF reports).

The available stations are represented by yellow and red dots on the map.

Hover mouse over dot to see the name of the station.

Then click to see weather observations and forecasts.

To change the map : click on the green buttons with a black cross to zoom in, on the green button with a dash to zoom out, or on the green arrows for adjacent maps.


METAR-TAF: